sensor_id;sensor_type;location;lat;lon;timestamp;P1;durP1;ratioP1;P2;durP2;ratioP2
23812;SDS011;12087;45.190;5.688;2022-08-02T00:02:27;2.95;;;1.90;;
23812;SDS011;12087;45.190;5.688;2022-08-02T00:07:50;4.85;;;1.17;;
23812;SDS011;12087;45.190;5.688;2022-08-02T00:13:12;3.90;;;1.63;;
23812;SDS011;12087;45.190;5.688;2022-08-02T00:18:35;2.13;;;1.15;;
23812;SDS011;12087;45.190;5.688;2022-08-02T00:23:58;2.47;;;1.52;;
23812;SDS011;12087;45.190;5.688;2022-08-02T00:29:20;3.13;;;1.52;;
23812;SDS011;12087;45.190;5.688;2022-08-02T00:34:44;2.05;;;1.40;;
23812;SDS011;12087;45.190;5.688;2022-08-02T00:40:06;1.98;;;1.80;;
23812;SDS011;12087;45.190;5.688;2022-08-02T00:45:29;3.65;;;1.55;;
23812;SDS011;12087;45.190;5.688;2022-08-02T00:50:53;1.70;;;1.60;;
23812;SDS011;12087;45.190;5.688;2022-08-02T00:56:16;1.85;;;1.58;;
23812;SDS011;12087;45.190;5.688;2022-08-02T01:01:38;3.03;;;1.77;;
23812;SDS011;12087;45.190;5.688;2022-08-02T01:07:02;4.53;;;1.77;;
23812;SDS011;12087;45.190;5.688;2022-08-02T01:12:26;2.42;;;1.63;;
23812;SDS011;12087;45.190;5.688;2022-08-02T01:17:49;2.42;;;1.67;;
23812;SDS011;12087;45.190;5.688;2022-08-02T01:23:24;5.78;;;1.40;;
23812;SDS011;12087;45.190;5.688;2022-08-02T01:28:58;2.57;;;1.70;;
23812;SDS011;12087;45.190;5.688;2022-08-02T01:34:27;2.13;;;1.80;;
23812;SDS011;12087;45.190;5.688;2022-08-02T01:39:54;3.15;;;1.52;;
23812;SDS011;12087;45.190;5.688;2022-08-02T01:45:22;3.05;;;1.77;;
23812;SDS011;12087;45.190;5.688;2022-08-02T01:50:47;3.22;;;1.75;;
23812;SDS011;12087;45.190;5.688;2022-08-02T01:56:11;5.93;;;1.42;;
23812;SDS011;12087;45.190;5.688;2022-08-02T02:01:36;4.88;;;1.67;;
23812;SDS011;12087;45.190;5.688;2022-08-02T02:06:59;2.70;;;2.03;;
23812;SDS011;12087;45.190;5.688;2022-08-02T02:12:23;3.28;;;1.55;;
23812;SDS011;12087;45.190;5.688;2022-08-02T02:17:48;2.25;;;1.50;;
23812;SDS011;12087;45.190;5.688;2022-08-02T02:23:13;4.97;;;1.90;;
23812;SDS011;12087;45.190;5.688;2022-08-02T02:28:36;7.30;;;1.95;;
23812;SDS011;12087;45.190;5.688;2022-08-02T02:34:02;3.20;;;1.70;;
23812;SDS011;12087;45.190;5.688;2022-08-02T02:39:29;2.50;;;1.70;;
23812;SDS011;12087;45.190;5.688;2022-08-02T02:44:53;2.03;;;1.50;;
23812;SDS011;12087;45.190;5.688;2022-08-02T02:50:18;2.03;;;1.40;;
23812;SDS011;12087;45.190;5.688;2022-08-02T02:55:42;6.40;;;2.25;;
23812;SDS011;12087;45.190;5.688;2022-08-02T03:01:05;2.67;;;1.52;;
23812;SDS011;12087;45.190;5.688;2022-08-02T03:12:08;2.15;;;1.67;;
23812;SDS011;12087;45.190;5.688;2022-08-02T03:17:37;1.98;;;1.58;;
23812;SDS011;12087;45.190;5.688;2022-08-02T03:23:06;4.00;;;1.58;;
23812;SDS011;12087;45.190;5.688;2022-08-02T03:28:28;2.47;;;1.70;;
23812;SDS011;12087;45.190;5.688;2022-08-02T03:33:51;3.03;;;1.70;;
23812;SDS011;12087;45.190;5.688;2022-08-02T03:39:16;2.95;;;1.70;;
23812;SDS011;12087;45.190;5.688;2022-08-02T03:44:39;1.95;;;1.40;;
23812;SDS011;12087;45.190;5.688;2022-08-02T03:50:02;2.40;;;1.77;;
23812;SDS011;12087;45.190;5.688;2022-08-02T03:55:27;2.80;;;1.60;;
23812;SDS011;12087;45.190;5.688;2022-08-02T04:00:50;3.10;;;1.50;;
23812;SDS011;12087;45.190;5.688;2022-08-02T04:06:13;2.88;;;1.77;;
23812;SDS011;12087;45.190;5.688;2022-08-02T04:11:37;4.75;;;2.00;;
23812;SDS011;12087;45.190;5.688;2022-08-02T04:17:00;2.47;;;1.55;;
23812;SDS011;12087;45.190;5.688;2022-08-02T04:22:26;2.50;;;1.73;;
23812;SDS011;12087;45.190;5.688;2022-08-02T04:27:53;3.45;;;1.70;;
23812;SDS011;12087;45.190;5.688;2022-08-02T04:33:16;3.42;;;2.13;;
23812;SDS011;12087;45.190;5.688;2022-08-02T04:38:38;4.63;;;2.25;;
23812;SDS011;12087;45.190;5.688;2022-08-02T04:44:02;2.40;;;1.70;;
23812;SDS011;12087;45.190;5.688;2022-08-02T04:49:24;1.60;;;1.42;;
23812;SDS011;12087;45.190;5.688;2022-08-02T04:54:47;6.15;;;2.00;;
23812;SDS011;12087;45.190;5.688;2022-08-02T05:00:12;4.63;;;1.83;;
23812;SDS011;12087;45.190;5.688;2022-08-02T05:05:35;4.43;;;1.60;;
23812;SDS011;12087;45.190;5.688;2022-08-02T05:10:57;6.55;;;2.05;;
23812;SDS011;12087;45.190;5.688;2022-08-02T05:16:21;4.78;;;2.10;;
23812;SDS011;12087;45.190;5.688;2022-08-02T05:21:45;3.78;;;2.30;;
23812;SDS011;12087;45.190;5.688;2022-08-02T05:27:07;6.03;;;2.03;;
23812;SDS011;12087;45.190;5.688;2022-08-02T05:32:30;5.35;;;2.33;;
23812;SDS011;12087;45.190;5.688;2022-08-02T05:37:53;4.82;;;2.28;;
23812;SDS011;12087;45.190;5.688;2022-08-02T05:43:15;4.88;;;2.20;;
23812;SDS011;12087;45.190;5.688;2022-08-02T05:48:39;8.35;;;2.40;;
23812;SDS011;12087;45.190;5.688;2022-08-02T05:54:02;2.53;;;1.92;;
23812;SDS011;12087;45.190;5.688;2022-08-02T05:59:34;3.97;;;1.80;;
23812;SDS011;12087;45.190;5.688;2022-08-02T06:05:07;3.20;;;2.17;;
23812;SDS011;12087;45.190;5.688;2022-08-02T06:10:32;4.07;;;1.87;;
23812;SDS011;12087;45.190;5.688;2022-08-02T06:15:55;3.65;;;2.17;;
23812;SDS011;12087;45.190;5.688;2022-08-02T06:21:21;7.03;;;2.28;;
23812;SDS011;12087;45.190;5.688;2022-08-02T06:26:43;7.45;;;2.72;;
23812;SDS011;12087;45.190;5.688;2022-08-02T06:32:07;7.82;;;2.38;;
23812;SDS011;12087;45.190;5.688;2022-08-02T06:37:33;10.95;;;2.53;;
23812;SDS011;12087;45.190;5.688;2022-08-02T06:43:05;7.30;;;2.47;;
23812;SDS011;12087;45.190;5.688;2022-08-02T06:48:32;14.20;;;3.17;;
23812;SDS011;12087;45.190;5.688;2022-08-02T06:53:57;15.43;;;2.85;;
23812;SDS011;12087;45.190;5.688;2022-08-02T06:59:19;9.40;;;3.00;;
23812;SDS011;12087;45.190;5.688;2022-08-02T07:04:41;6.88;;;2.47;;
23812;SDS011;12087;45.190;5.688;2022-08-02T07:10:06;8.52;;;2.60;;
23812;SDS011;12087;45.190;5.688;2022-08-02T07:15:28;13.35;;;2.60;;
23812;SDS011;12087;45.190;5.688;2022-08-02T07:20:50;11.95;;;2.85;;
23812;SDS011;12087;45.190;5.688;2022-08-02T07:26:14;6.97;;;2.88;;
23812;SDS011;12087;45.190;5.688;2022-08-02T07:31:36;9.35;;;3.10;;
23812;SDS011;12087;45.190;5.688;2022-08-02T07:36:59;4.60;;;2.30;;
23812;SDS011;12087;45.190;5.688;2022-08-02T07:42:22;6.85;;;2.35;;
23812;SDS011;12087;45.190;5.688;2022-08-02T07:47:45;3.20;;;2.08;;
23812;SDS011;12087;45.190;5.688;2022-08-02T07:53:08;6.85;;;2.67;;
23812;SDS011;12087;45.190;5.688;2022-08-02T07:58:32;7.25;;;2.50;;
23812;SDS011;12087;45.190;5.688;2022-08-02T08:03:54;6.85;;;2.60;;
23812;SDS011;12087;45.190;5.688;2022-08-02T08:09:16;6.85;;;2.50;;
23812;SDS011;12087;45.190;5.688;2022-08-02T08:14:41;8.35;;;2.95;;
23812;SDS011;12087;45.190;5.688;2022-08-02T08:20:16;9.40;;;2.72;;
23812;SDS011;12087;45.190;5.688;2022-08-02T08:25:49;4.25;;;2.50;;
23812;SDS011;12087;45.190;5.688;2022-08-02T08:31:13;3.92;;;2.53;;
23812;SDS011;12087;45.190;5.688;2022-08-02T08:36:36;7.60;;;2.33;;
23812;SDS011;12087;45.190;5.688;2022-08-02T08:41:58;7.65;;;2.80;;
23812;SDS011;12087;45.190;5.688;2022-08-02T08:47:21;10.40;;;2.63;;
23812;SDS011;12087;45.190;5.688;2022-08-02T08:52:47;6.18;;;2.78;;
23812;SDS011;12087;45.190;5.688;2022-08-02T08:58:13;7.90;;;2.50;;
23812;SDS011;12087;45.190;5.688;2022-08-02T09:03:37;5.40;;;2.65;;
23812;SDS011;12087;45.190;5.688;2022-08-02T09:08:59;3.47;;;2.25;;
23812;SDS011;12087;45.190;5.688;2022-08-02T09:14:25;6.55;;;2.65;;
23812;SDS011;12087;45.190;5.688;2022-08-02T09:19:50;3.17;;;2.15;;
23812;SDS011;12087;45.190;5.688;2022-08-02T09:25:28;3.90;;;2.00;;
23812;SDS011;12087;45.190;5.688;2022-08-02T09:30:50;6.43;;;2.10;;
23812;SDS011;12087;45.190;5.688;2022-08-02T09:36:15;3.95;;;2.55;;
23812;SDS011;12087;45.190;5.688;2022-08-02T09:41:38;5.93;;;2.28;;
23812;SDS011;12087;45.190;5.688;2022-08-02T09:47:01;6.68;;;2.42;;
23812;SDS011;12087;45.190;5.688;2022-08-02T09:52:38;3.75;;;2.33;;
23812;SDS011;12087;45.190;5.688;2022-08-02T09:58:15;4.93;;;2.28;;
23812;SDS011;12087;45.190;5.688;2022-08-02T10:03:45;4.68;;;2.75;;
23812;SDS011;12087;45.190;5.688;2022-08-02T10:09:17;4.63;;;2.42;;
23812;SDS011;12087;45.190;5.688;2022-08-02T10:14:40;4.30;;;2.50;;
23812;SDS011;12087;45.190;5.688;2022-08-02T10:20:03;5.95;;;2.65;;
23812;SDS011;12087;45.190;5.688;2022-08-02T10:25:27;2.95;;;2.13;;
23812;SDS011;12087;45.190;5.688;2022-08-02T10:30:51;2.15;;;1.80;;
23812;SDS011;12087;45.190;5.688;2022-08-02T10:36:16;3.97;;;2.10;;
23812;SDS011;12087;45.190;5.688;2022-08-02T10:47:25;3.60;;;2.75;;
23812;SDS011;12087;45.190;5.688;2022-08-02T10:52:48;3.28;;;2.00;;
23812;SDS011;12087;45.190;5.688;2022-08-02T10:58:42;4.80;;;2.45;;
23812;SDS011;12087;45.190;5.688;2022-08-02T11:04:04;5.30;;;4.60;;
23812;SDS011;12087;45.190;5.688;2022-08-02T11:09:28;4.60;;;3.55;;
23812;SDS011;12087;45.190;5.688;2022-08-02T11:14:58;3.55;;;2.25;;
23812;SDS011;12087;45.190;5.688;2022-08-02T11:20:23;3.40;;;1.95;;
23812;SDS011;12087;45.190;5.688;2022-08-02T11:25:46;4.43;;;2.10;;
23812;SDS011;12087;45.190;5.688;2022-08-02T11:31:11;3.60;;;1.92;;
23812;SDS011;12087;45.190;5.688;2022-08-02T11:36:41;11.27;;;2.30;;
23812;SDS011;12087;45.190;5.688;2022-08-02T11:42:07;2.90;;;2.20;;
23812;SDS011;12087;45.190;5.688;2022-08-02T11:47:30;2.80;;;1.90;;
23812;SDS011;12087;45.190;5.688;2022-08-02T11:52:53;2.67;;;1.67;;
23812;SDS011;12087;45.190;5.688;2022-08-02T11:58:15;4.97;;;2.03;;
23812;SDS011;12087;45.190;5.688;2022-08-02T12:03:39;4.65;;;1.60;;
23812;SDS011;12087;45.190;5.688;2022-08-02T12:09:02;2.15;;;1.88;;
23812;SDS011;12087;45.190;5.688;2022-08-02T12:14:26;6.00;;;1.83;;
23812;SDS011;12087;45.190;5.688;2022-08-02T12:19:50;4.15;;;2.03;;
23812;SDS011;12087;45.190;5.688;2022-08-02T12:25:16;2.03;;;1.45;;
23812;SDS011;12087;45.190;5.688;2022-08-02T12:30:47;2.75;;;1.50;;
23812;SDS011;12087;45.190;5.688;2022-08-02T12:36:17;3.85;;;1.45;;
23812;SDS011;12087;45.190;5.688;2022-08-02T12:41:40;3.58;;;1.65;;
23812;SDS011;12087;45.190;5.688;2022-08-02T12:47:03;3.20;;;1.50;;
23812;SDS011;12087;45.190;5.688;2022-08-02T12:52:31;3.60;;;2.00;;
23812;SDS011;12087;45.190;5.688;2022-08-02T12:57:54;2.33;;;1.20;;
23812;SDS011;12087;45.190;5.688;2022-08-02T13:03:18;5.10;;;1.90;;
23812;SDS011;12087;45.190;5.688;2022-08-02T13:08:42;1.52;;;1.33;;
23812;SDS011;12087;45.190;5.688;2022-08-02T13:14:04;1.70;;;1.40;;
23812;SDS011;12087;45.190;5.688;2022-08-02T13:19:27;2.53;;;1.60;;
23812;SDS011;12087;45.190;5.688;2022-08-02T13:24:50;2.58;;;1.25;;
23812;SDS011;12087;45.190;5.688;2022-08-02T13:30:12;3.13;;;1.05;;
23812;SDS011;12087;45.190;5.688;2022-08-02T13:35:35;6.75;;;1.25;;
23812;SDS011;12087;45.190;5.688;2022-08-02T13:40:58;8.13;;;1.27;;
23812;SDS011;12087;45.190;5.688;2022-08-02T13:46:30;1.25;;;1.05;;
23812;SDS011;12087;45.190;5.688;2022-08-02T13:51:54;2.00;;;1.20;;
23812;SDS011;12087;45.190;5.688;2022-08-02T13:57:18;2.80;;;1.23;;
23812;SDS011;12087;45.190;5.688;2022-08-02T14:02:40;2.70;;;1.10;;
23812;SDS011;12087;45.190;5.688;2022-08-02T14:08:02;2.92;;;1.55;;
23812;SDS011;12087;45.190;5.688;2022-08-02T14:13:26;3.92;;;1.08;;
23812;SDS011;12087;45.190;5.688;2022-08-02T14:18:48;3.92;;;1.00;;
23812;SDS011;12087;45.190;5.688;2022-08-02T14:24:10;1.73;;;1.00;;
23812;SDS011;12087;45.190;5.688;2022-08-02T14:29:34;1.88;;;0.90;;
23812;SDS011;12087;45.190;5.688;2022-08-02T14:34:56;1.67;;;1.02;;
23812;SDS011;12087;45.190;5.688;2022-08-02T14:40:18;1.17;;;1.00;;
23812;SDS011;12087;45.190;5.688;2022-08-02T14:45:42;3.10;;;0.90;;
23812;SDS011;12087;45.190;5.688;2022-08-02T14:51:04;3.90;;;1.10;;
23812;SDS011;12087;45.190;5.688;2022-08-02T14:56:27;3.22;;;1.00;;
23812;SDS011;12087;45.190;5.688;2022-08-02T15:01:50;2.38;;;0.93;;
23812;SDS011;12087;45.190;5.688;2022-08-02T15:07:13;2.05;;;0.93;;
23812;SDS011;12087;45.190;5.688;2022-08-02T15:12:35;1.45;;;1.08;;
23812;SDS011;12087;45.190;5.688;2022-08-02T15:17:58;1.48;;;1.00;;
23812;SDS011;12087;45.190;5.688;2022-08-02T15:23:21;2.38;;;1.17;;
23812;SDS011;12087;45.190;5.688;2022-08-02T15:28:45;1.20;;;0.82;;
23812;SDS011;12087;45.190;5.688;2022-08-02T15:34:08;4.57;;;1.05;;
23812;SDS011;12087;45.190;5.688;2022-08-02T15:39:30;3.30;;;1.00;;
23812;SDS011;12087;45.190;5.688;2022-08-02T15:44:53;3.85;;;1.13;;
23812;SDS011;12087;45.190;5.688;2022-08-02T15:50:16;2.95;;;1.40;;
23812;SDS011;12087;45.190;5.688;2022-08-02T15:55:40;1.83;;;0.73;;
23812;SDS011;12087;45.190;5.688;2022-08-02T16:01:02;1.88;;;0.77;;
23812;SDS011;12087;45.190;5.688;2022-08-02T16:06:25;3.40;;;1.00;;
23812;SDS011;12087;45.190;5.688;2022-08-02T16:11:48;1.73;;;0.80;;
23812;SDS011;12087;45.190;5.688;2022-08-02T16:17:10;1.10;;;1.00;;
23812;SDS011;12087;45.190;5.688;2022-08-02T16:22:34;1.23;;;0.90;;
23812;SDS011;12087;45.190;5.688;2022-08-02T16:27:57;2.90;;;1.05;;
23812;SDS011;12087;45.190;5.688;2022-08-02T16:33:19;1.33;;;0.90;;
23812;SDS011;12087;45.190;5.688;2022-08-02T16:38:43;1.73;;;0.75;;
23812;SDS011;12087;45.190;5.688;2022-08-02T16:44:05;1.63;;;0.95;;
23812;SDS011;12087;45.190;5.688;2022-08-02T16:49:28;1.83;;;1.08;;
23812;SDS011;12087;45.190;5.688;2022-08-02T16:54:52;2.55;;;0.90;;
23812;SDS011;12087;45.190;5.688;2022-08-02T17:00:14;2.25;;;0.73;;
23812;SDS011;12087;45.190;5.688;2022-08-02T17:05:37;2.47;;;1.00;;
23812;SDS011;12087;45.190;5.688;2022-08-02T17:11:01;2.40;;;0.73;;
23812;SDS011;12087;45.190;5.688;2022-08-02T17:16:23;1.85;;;0.80;;
23812;SDS011;12087;45.190;5.688;2022-08-02T17:21:45;3.10;;;1.13;;
23812;SDS011;12087;45.190;5.688;2022-08-02T17:27:09;1.80;;;1.08;;
23812;SDS011;12087;45.190;5.688;2022-08-02T17:32:32;2.47;;;1.10;;
23812;SDS011;12087;45.190;5.688;2022-08-02T17:37:54;2.38;;;1.00;;
23812;SDS011;12087;45.190;5.688;2022-08-02T17:43:19;1.45;;;0.93;;
23812;SDS011;12087;45.190;5.688;2022-08-02T17:48:41;1.98;;;1.25;;
23812;SDS011;12087;45.190;5.688;2022-08-02T17:54:21;5.70;;;0.90;;
23812;SDS011;12087;45.190;5.688;2022-08-02T17:59:54;2.08;;;1.10;;
23812;SDS011;12087;45.190;5.688;2022-08-02T18:05:18;3.00;;;1.20;;
23812;SDS011;12087;45.190;5.688;2022-08-02T18:10:40;2.10;;;0.90;;
23812;SDS011;12087;45.190;5.688;2022-08-02T18:16:04;1.08;;;0.90;;
23812;SDS011;12087;45.190;5.688;2022-08-02T18:21:27;2.83;;;1.33;;
23812;SDS011;12087;45.190;5.688;2022-08-02T18:26:49;4.53;;;1.33;;
23812;SDS011;12087;45.190;5.688;2022-08-02T18:32:13;2.72;;;0.98;;
23812;SDS011;12087;45.190;5.688;2022-08-02T18:37:35;3.67;;;1.20;;
23812;SDS011;12087;45.190;5.688;2022-08-02T18:42:57;4.15;;;2.03;;
23812;SDS011;12087;45.190;5.688;2022-08-02T18:48:21;6.20;;;4.55;;
23812;SDS011;12087;45.190;5.688;2022-08-02T18:53:45;9.95;;;5.22;;
23812;SDS011;12087;45.190;5.688;2022-08-02T18:59:10;5.53;;;1.70;;
23812;SDS011;12087;45.190;5.688;2022-08-02T19:04:34;4.13;;;1.40;;
23812;SDS011;12087;45.190;5.688;2022-08-02T19:09:56;6.57;;;1.20;;
23812;SDS011;12087;45.190;5.688;2022-08-02T19:15:19;10.25;;;5.60;;
23812;SDS011;12087;45.190;5.688;2022-08-02T19:20:43;11.65;;;2.08;;
23812;SDS011;12087;45.190;5.688;2022-08-02T19:26:05;3.78;;;1.58;;
23812;SDS011;12087;45.190;5.688;2022-08-02T19:31:28;3.70;;;1.55;;
23812;SDS011;12087;45.190;5.688;2022-08-02T19:36:51;4.30;;;1.52;;
23812;SDS011;12087;45.190;5.688;2022-08-02T19:42:14;1.63;;;0.95;;
23812;SDS011;12087;45.190;5.688;2022-08-02T19:47:36;1.30;;;1.10;;
23812;SDS011;12087;45.190;5.688;2022-08-02T19:53:00;4.28;;;1.20;;
23812;SDS011;12087;45.190;5.688;2022-08-02T19:58:23;3.15;;;1.33;;
23812;SDS011;12087;45.190;5.688;2022-08-02T20:03:45;3.47;;;1.00;;
23812;SDS011;12087;45.190;5.688;2022-08-02T20:09:08;3.97;;;1.05;;
23812;SDS011;12087;45.190;5.688;2022-08-02T20:14:32;3.72;;;1.15;;
23812;SDS011;12087;45.190;5.688;2022-08-02T20:19:54;2.80;;;1.10;;
23812;SDS011;12087;45.190;5.688;2022-08-02T20:25:18;1.98;;;0.90;;
23812;SDS011;12087;45.190;5.688;2022-08-02T20:30:40;10.98;;;2.00;;
23812;SDS011;12087;45.190;5.688;2022-08-02T20:36:03;12.43;;;1.60;;
23812;SDS011;12087;45.190;5.688;2022-08-02T20:41:27;10.52;;;1.42;;
23812;SDS011;12087;45.190;5.688;2022-08-02T20:46:51;5.35;;;1.27;;
23812;SDS011;12087;45.190;5.688;2022-08-02T20:52:13;5.68;;;1.50;;
23812;SDS011;12087;45.190;5.688;2022-08-02T20:57:37;4.90;;;1.15;;
23812;SDS011;12087;45.190;5.688;2022-08-02T21:02:59;1.83;;;1.20;;
23812;SDS011;12087;45.190;5.688;2022-08-02T21:08:22;4.18;;;1.45;;
23812;SDS011;12087;45.190;5.688;2022-08-02T21:13:46;3.08;;;1.67;;
23812;SDS011;12087;45.190;5.688;2022-08-02T21:19:08;3.00;;;1.23;;
23812;SDS011;12087;45.190;5.688;2022-08-02T21:24:30;4.03;;;1.48;;
23812;SDS011;12087;45.190;5.688;2022-08-02T21:29:54;9.82;;;1.60;;
23812;SDS011;12087;45.190;5.688;2022-08-02T21:35:16;3.38;;;1.10;;
23812;SDS011;12087;45.190;5.688;2022-08-02T21:40:38;3.28;;;1.33;;
23812;SDS011;12087;45.190;5.688;2022-08-02T21:46:02;3.13;;;1.42;;
23812;SDS011;12087;45.190;5.688;2022-08-02T21:51:24;3.10;;;1.52;;
23812;SDS011;12087;45.190;5.688;2022-08-02T21:56:47;2.60;;;1.80;;
23812;SDS011;12087;45.190;5.688;2022-08-02T22:02:11;2.83;;;1.25;;
23812;SDS011;12087;45.190;5.688;2022-08-02T22:07:33;4.35;;;1.40;;
23812;SDS011;12087;45.190;5.688;2022-08-02T22:12:55;2.03;;;1.38;;
23812;SDS011;12087;45.190;5.688;2022-08-02T22:18:19;2.45;;;1.23;;
23812;SDS011;12087;45.190;5.688;2022-08-02T22:23:41;1.80;;;1.13;;
23812;SDS011;12087;45.190;5.688;2022-08-02T22:29:04;1.90;;;0.98;;
23812;SDS011;12087;45.190;5.688;2022-08-02T22:34:27;1.80;;;1.17;;
23812;SDS011;12087;45.190;5.688;2022-08-02T22:39:49;2.17;;;1.15;;
23812;SDS011;12087;45.190;5.688;2022-08-02T22:45:12;1.40;;;1.20;;
23812;SDS011;12087;45.190;5.688;2022-08-02T22:50:35;1.10;;;1.00;;
23812;SDS011;12087;45.190;5.688;2022-08-02T22:55:58;3.33;;;1.27;;
23812;SDS011;12087;45.190;5.688;2022-08-02T23:01:20;2.42;;;1.40;;
23812;SDS011;12087;45.190;5.688;2022-08-02T23:06:44;2.20;;;1.10;;
23812;SDS011;12087;45.190;5.688;2022-08-02T23:12:06;1.65;;;1.20;;
23812;SDS011;12087;45.190;5.688;2022-08-02T23:17:29;2.42;;;1.10;;
23812;SDS011;12087;45.190;5.688;2022-08-02T23:28:32;2.70;;;1.05;;
23812;SDS011;12087;45.190;5.688;2022-08-02T23:33:55;2.03;;;1.20;;
23812;SDS011;12087;45.190;5.688;2022-08-02T23:39:19;3.17;;;1.30;;
23812;SDS011;12087;45.190;5.688;2022-08-02T23:44:42;3.25;;;1.52;;
23812;SDS011;12087;45.190;5.688;2022-08-02T23:50:05;1.92;;;1.20;;
23812;SDS011;12087;45.190;5.688;2022-08-02T23:55:29;2.60;;;1.10;;
